createdAt,value
2022-11-12T00:01:45.922Z,67.45
2022-11-12T00:04:32.321Z,59.25
2022-11-12T00:07:18.664Z,49.25
2022-11-12T00:10:06.114Z,54.03
2022-11-12T00:12:52.750Z,56.50
2022-11-12T00:15:39.438Z,52.83
2022-11-12T00:18:26.077Z,49.42
2022-11-12T00:21:12.170Z,51.65
2022-11-12T00:23:58.240Z,81.90
2022-11-12T00:26:44.219Z,75.93
2022-11-12T00:29:30.383Z,77.35
2022-11-12T00:32:16.436Z,77.55
2022-11-12T00:35:03.030Z,76.25
2022-11-12T00:37:55.124Z,71.60
2022-11-12T00:40:42.424Z,62.28
2022-11-12T00:43:29.036Z,64.45
2022-11-12T00:46:15.398Z,64.75
2022-11-12T00:49:02.233Z,59.25
2022-11-12T00:51:48.955Z,45.13
2022-11-12T00:54:34.861Z,61.97
2022-11-12T00:57:20.856Z,81.18
2022-11-12T01:00:07.946Z,67.13
2022-11-12T01:02:54.849Z,59.15
2022-11-12T01:05:40.862Z,60.72
2022-11-12T01:08:30.147Z,68.20
2022-11-12T01:11:23.247Z,47.05
2022-11-12T01:14:10.194Z,62.55
2022-11-12T01:16:56.643Z,62.58
2022-11-12T01:19:43.032Z,65.55
2022-11-12T01:22:28.913Z,62.17
2022-11-12T01:25:15.150Z,63.90
2022-11-12T01:28:01.696Z,59.03
2022-11-12T01:30:47.916Z,59.83
2022-11-12T01:33:34.276Z,57.95
2022-11-12T01:36:21.162Z,52.38
2022-11-12T01:39:08.721Z,50.00
2022-11-12T01:41:54.875Z,51.88
2022-11-12T01:44:44.954Z,49.15
2022-11-12T01:47:34.767Z,37.60
2022-11-12T01:50:35.133Z,36.10
2022-11-12T01:56:10.037Z,45.42
2022-11-12T01:59:01.761Z,41.00
2022-11-12T02:01:48.046Z,39.25
2022-11-12T02:04:36.578Z,40.28
2022-11-12T02:07:25.375Z,45.45
2022-11-12T02:10:11.951Z,48.17
2022-11-12T02:13:17.193Z,47.60
2022-11-12T02:16:05.235Z,45.05
2022-11-12T02:18:51.591Z,45.75
2022-11-12T02:21:38.417Z,39.90
2022-11-12T02:24:24.362Z,39.47
2022-11-12T02:27:12.254Z,37.72
2022-11-12T02:29:58.230Z,37.60
2022-11-12T02:32:44.139Z,33.33
2022-11-12T02:35:30.775Z,34.00
2022-11-12T02:38:16.689Z,33.40
2022-11-12T02:41:02.950Z,32.25
2022-11-12T02:43:49.180Z,30.70
2022-11-12T02:46:35.408Z,28.95
2022-11-12T02:49:21.415Z,25.48
2022-11-12T02:52:08.509Z,25.30
2022-11-12T02:54:54.566Z,27.02
2022-11-12T02:57:41.372Z,21.05
2022-11-12T03:00:27.890Z,19.20
2022-11-12T03:03:14.364Z,21.23
2022-11-12T03:06:01.970Z,20.98
2022-11-12T03:08:48.316Z,21.20
2022-11-12T03:11:34.248Z,20.98
2022-11-12T03:14:20.566Z,22.25
2022-11-12T03:17:06.931Z,20.98
2022-11-12T03:19:52.970Z,21.83
2022-11-12T03:22:39.981Z,21.63
2022-11-12T03:25:27.551Z,21.63
2022-11-12T03:28:16.494Z,22.58
2022-11-12T03:31:03.220Z,24.83
2022-11-12T03:33:49.793Z,26.10
2022-11-12T03:36:36.308Z,21.73
2022-11-12T03:39:22.811Z,23.60
2022-11-12T03:42:09.981Z,20.45
2022-11-12T03:44:56.139Z,14.30
2022-11-12T03:47:46.580Z,13.52
2022-11-12T03:50:33.031Z,15.25
2022-11-12T03:53:19.187Z,20.50
2022-11-12T03:56:05.764Z,18.73
2022-11-12T03:58:51.895Z,16.30
2022-11-12T04:01:38.330Z,18.20
2022-11-12T04:04:44.699Z,18.02
2022-11-12T04:07:49.781Z,18.13
2022-11-12T04:10:36.592Z,18.00
2022-11-12T04:13:28.546Z,19.08
2022-11-12T04:16:37.160Z,16.15
2022-11-12T04:19:41.731Z,17.63
2022-11-12T04:22:28.076Z,16.17
2022-11-12T04:25:32.411Z,16.38
2022-11-12T04:28:18.585Z,18.42
2022-11-12T04:31:04.943Z,14.70
2022-11-12T04:33:50.977Z,14.90
2022-11-12T04:36:37.552Z,17.83
2022-11-12T04:39:23.444Z,17.17
2022-11-12T04:42:28.909Z,18.52
2022-11-12T04:45:14.925Z,18.25
2022-11-12T04:48:01.106Z,21.92
2022-11-12T04:51:27.257Z,19.77
2022-11-12T04:54:13.399Z,17.27
2022-11-12T04:56:59.539Z,13.93
2022-11-12T04:59:46.716Z,13.23
2022-11-12T05:02:32.843Z,16.73
2022-11-12T05:05:19.136Z,14.75
2022-11-12T05:08:05.465Z,18.83
2022-11-12T05:10:51.551Z,21.15
2022-11-12T05:13:37.861Z,29.27
2022-11-12T05:16:24.263Z,27.88
2022-11-12T05:19:10.623Z,30.65
2022-11-12T05:22:06.007Z,36.60
2022-11-12T05:24:52.124Z,32.13
2022-11-12T05:27:38.187Z,27.70
2022-11-12T05:30:24.050Z,32.45
2022-11-12T05:33:09.861Z,33.17
2022-11-12T05:35:58.830Z,32.88
2022-11-12T05:38:45.093Z,34.30
2022-11-12T05:41:45.186Z,36.35
2022-11-12T05:44:37.517Z,33.60
2022-11-12T05:47:23.887Z,32.28
2022-11-12T05:50:10.185Z,29.13
2022-11-12T05:52:56.426Z,28.27
2022-11-12T05:55:43.143Z,31.48
2022-11-12T05:58:29.751Z,27.60
2022-11-12T06:01:16.008Z,30.02
2022-11-12T06:04:02.386Z,30.13
2022-11-12T06:06:48.738Z,32.08
2022-11-12T06:09:35.081Z,36.17
2022-11-12T06:12:21.794Z,47.35
2022-11-12T06:15:08.347Z,43.65
2022-11-12T06:17:55.642Z,37.67
2022-11-12T06:20:41.738Z,35.45
2022-11-12T06:23:27.703Z,39.63
2022-11-12T06:26:14.223Z,46.85
2022-11-12T06:29:00.977Z,44.78
2022-11-12T06:31:47.475Z,45.10
2022-11-12T06:34:33.841Z,54.35
2022-11-12T06:37:22.286Z,42.03
2022-11-12T06:40:09.174Z,80.80
2022-11-12T06:42:59.183Z,46.20
2022-11-12T06:45:45.424Z,46.70
2022-11-12T06:48:32.028Z,46.42
2022-11-12T06:51:20.808Z,46.47
2022-11-12T06:54:07.374Z,80.50
2022-11-12T06:56:53.964Z,111.47
2022-11-12T06:59:40.033Z,60.08
2022-11-12T07:02:26.426Z,53.42
2022-11-12T07:05:13.041Z,58.58
2022-11-12T07:07:59.218Z,45.40
2022-11-12T07:10:45.477Z,46.22
2022-11-12T07:13:33.295Z,51.42
2022-11-12T07:16:19.577Z,48.40
2022-11-12T07:19:06.414Z,50.88
2022-11-12T07:21:55.020Z,35.53
2022-11-12T07:24:41.064Z,31.88
2022-11-12T07:27:30.901Z,35.38
2022-11-12T07:30:17.840Z,28.38
2022-11-12T07:33:04.341Z,28.98
2022-11-12T07:35:56.605Z,31.05
2022-11-12T07:38:43.879Z,33.63
2022-11-12T07:41:30.614Z,36.55
2022-11-12T07:44:17.325Z,35.55
2022-11-12T07:47:03.713Z,38.80
2022-11-12T07:49:50.174Z,47.47
2022-11-12T07:52:36.700Z,35.80
2022-11-12T07:55:23.564Z,29.63
2022-11-12T07:58:10.175Z,27.88
2022-11-12T08:00:56.446Z,25.45
2022-11-12T08:03:42.937Z,21.83
2022-11-12T08:06:30.877Z,24.95
2022-11-12T08:09:17.479Z,26.17
2022-11-12T08:12:04.298Z,18.70
2022-11-12T08:14:50.371Z,18.58
2022-11-12T08:17:40.160Z,17.00
2022-11-12T08:20:26.091Z,19.77
2022-11-12T08:23:12.242Z,20.73
2022-11-12T08:26:02.906Z,21.33
2022-11-12T08:31:35.645Z,25.25
2022-11-12T08:34:22.922Z,29.48
2022-11-12T08:37:09.005Z,20.70
2022-11-12T08:39:55.094Z,20.10
2022-11-12T08:42:41.071Z,17.75
2022-11-12T08:45:28.177Z,14.52
2022-11-12T08:48:14.623Z,17.33
2022-11-12T08:51:07.741Z,20.38
2022-11-12T08:53:54.782Z,17.55
2022-11-12T08:56:43.374Z,15.82
2022-11-12T08:59:29.773Z,12.55
2022-11-12T09:02:16.014Z,13.65
2022-11-12T09:05:02.671Z,15.32
2022-11-12T09:07:56.601Z,17.45
2022-11-12T09:10:43.028Z,19.95
2022-11-12T09:13:29.221Z,20.80
2022-11-12T09:16:16.265Z,18.40
2022-11-12T09:19:02.352Z,20.33
2022-11-12T09:21:48.456Z,20.55
2022-11-12T09:24:35.004Z,19.08
2022-11-12T09:27:21.261Z,18.05
2022-11-12T09:30:08.724Z,18.67
2022-11-12T09:32:59.287Z,17.88
2022-11-12T09:35:47.170Z,16.75
2022-11-12T09:38:33.813Z,16.55
2022-11-12T09:41:37.876Z,14.63
2022-11-12T09:44:24.593Z,26.65
2022-11-12T09:47:37.742Z,15.05
2022-11-12T09:50:29.993Z,15.57
2022-11-12T09:53:40.235Z,14.30
2022-11-12T09:56:31.450Z,13.23
2022-11-12T09:59:18.737Z,12.15
2022-11-12T10:02:24.639Z,10.60
2022-11-12T10:05:46.442Z,11.13
2022-11-12T10:08:54.143Z,14.63
2022-11-12T10:12:33.380Z,12.98
2022-11-12T10:15:58.541Z,12.60
2022-11-12T10:18:53.345Z,15.98
2022-11-12T10:22:05.034Z,11.10
2022-11-12T10:24:53.633Z,11.00
2022-11-12T10:27:43.846Z,12.02
2022-11-12T10:30:30.136Z,19.20
2022-11-12T10:33:17.006Z,40.28
2022-11-12T10:36:23.641Z,27.13
2022-11-12T10:39:10.402Z,13.63
2022-11-12T10:42:07.605Z,14.57
2022-11-12T10:44:53.725Z,9.43
2022-11-12T10:47:43.229Z,8.82
2022-11-12T10:50:36.770Z,9.82
2022-11-12T10:53:49.172Z,10.43
2022-11-12T10:56:35.520Z,11.75
2022-11-12T10:59:26.380Z,11.73
2022-11-12T11:02:19.498Z,12.90
2022-11-12T11:05:38.210Z,14.85
2022-11-12T11:08:38.236Z,11.50
2022-11-12T11:11:31.371Z,11.82
2022-11-12T11:14:26.122Z,15.77
2022-11-12T11:17:19.396Z,17.48
2022-11-12T11:20:20.464Z,11.93
2022-11-12T11:23:45.410Z,17.30
2022-11-12T11:26:44.020Z,8.07
2022-11-12T11:29:52.921Z,7.03
2022-11-12T11:32:47.909Z,30.60
2022-11-12T11:36:15.798Z,10.90
2022-11-12T11:39:14.293Z,11.20
2022-11-12T11:42:15.444Z,11.43
2022-11-12T11:45:20.879Z,13.80
2022-11-12T11:48:24.213Z,9.95
2022-11-12T11:51:38.843Z,11.57
2022-11-12T11:54:43.932Z,11.25
2022-11-12T11:57:40.735Z,7.65
2022-11-12T12:00:38.393Z,13.25
2022-11-12T12:03:53.856Z,15.90
2022-11-12T12:06:59.088Z,10.95
2022-11-12T12:10:09.621Z,11.48
2022-11-12T12:13:17.590Z,11.68
2022-11-12T12:16:22.429Z,9.80
2022-11-12T12:19:25.976Z,9.98
2022-11-12T12:22:21.917Z,11.88
2022-11-12T12:25:40.879Z,13.20
2022-11-12T12:28:48.761Z,13.07
2022-11-12T12:31:44.770Z,15.93
2022-11-12T12:34:56.515Z,19.00
2022-11-12T12:37:48.435Z,15.90
2022-11-12T12:41:02.482Z,20.27
2022-11-12T12:43:59.976Z,12.45
2022-11-12T12:46:53.018Z,16.88
2022-11-12T12:49:40.526Z,18.13
2022-11-12T12:52:26.637Z,17.85
2022-11-12T12:55:45.629Z,18.80
2022-11-12T12:58:40.606Z,21.42
2022-11-12T13:01:37.181Z,26.63
2022-11-12T13:04:52.776Z,24.70
2022-11-12T13:07:43.216Z,15.45
2022-11-12T13:10:44.834Z,13.55
2022-11-12T13:13:33.941Z,29.33
2022-11-12T13:16:56.778Z,24.10
2022-11-12T13:19:54.744Z,32.33
2022-11-12T13:22:40.968Z,28.55
2022-11-12T13:25:29.318Z,21.52
2022-11-12T13:28:15.864Z,20.13
2022-11-12T13:31:03.898Z,21.83
2022-11-12T13:33:50.112Z,17.83
2022-11-12T13:36:36.540Z,25.52
2022-11-12T13:39:24.320Z,30.50
2022-11-12T13:42:37.374Z,35.17
2022-11-12T13:45:26.433Z,25.30
2022-11-12T13:48:53.517Z,18.90
2022-11-12T13:51:58.895Z,18.95
2022-11-12T13:54:45.238Z,36.90
2022-11-12T13:57:33.186Z,48.60
2022-11-12T14:00:21.269Z,37.78
2022-11-12T14:03:08.362Z,12.15
2022-11-12T14:05:56.549Z,142.00
2022-11-12T14:09:04.089Z,44.25
2022-11-12T14:12:25.520Z,42.50
2022-11-12T14:15:34.721Z,398.90
2022-11-12T14:18:45.910Z,480.70
2022-11-12T14:21:32.323Z,197.55
2022-11-12T14:24:19.117Z,112.50
2022-11-12T14:27:05.426Z,141.73
2022-11-12T14:30:15.238Z,77.10
2022-11-12T14:33:09.979Z,318.67
2022-11-12T14:36:11.394Z,147.85
2022-11-12T14:38:59.688Z,26.45
2022-11-12T14:41:51.085Z,53.45
2022-11-12T14:44:39.037Z,21.63
2022-11-12T14:47:26.474Z,36.50
2022-11-12T14:50:20.251Z,10.20
2022-11-12T14:53:13.697Z,20.73
2022-11-12T14:56:01.943Z,17.73
2022-11-12T14:58:48.803Z,15.57
2022-11-12T15:02:14.606Z,15.88
2022-11-12T15:04:58.742Z,38.60
2022-11-12T15:08:12.356Z,20.98
2022-11-12T15:11:28.897Z,31.90
2022-11-12T15:14:27.721Z,42.72
2022-11-12T15:17:33.942Z,66.93
2022-11-12T15:20:20.608Z,46.38
2022-11-12T15:23:15.510Z,46.72
2022-11-12T15:26:03.010Z,61.67
2022-11-12T15:29:20.158Z,47.83
2022-11-12T15:32:13.909Z,111.53
2022-11-12T15:35:02.515Z,97.47
2022-11-12T15:37:49.574Z,147.60
2022-11-12T15:40:46.236Z,114.28
2022-11-12T15:43:37.268Z,329.48
2022-11-12T15:46:23.932Z,81.15
2022-11-12T15:49:13.815Z,92.90
2022-11-12T15:52:00.372Z,172.80
2022-11-12T15:54:47.115Z,129.10
2022-11-12T15:57:41.978Z,98.90
2022-11-12T16:00:34.964Z,112.28
2022-11-12T16:03:22.822Z,108.47
2022-11-12T16:06:12.584Z,123.93
2022-11-12T16:08:59.208Z,98.55
2022-11-12T16:11:46.180Z,107.70
2022-11-12T16:14:36.445Z,108.15
2022-11-12T16:17:22.873Z,142.70
2022-11-12T16:20:24.174Z,128.32
2022-11-12T16:23:10.589Z,113.80
2022-11-12T16:25:57.903Z,78.25
2022-11-12T16:28:45.444Z,75.65
2022-11-12T16:31:32.076Z,83.47
2022-11-12T16:34:20.281Z,85.90
2022-11-12T16:37:09.746Z,88.53
2022-11-12T16:39:55.870Z,141.13
2022-11-12T16:42:48.373Z,63.15
2022-11-12T16:45:38.295Z,58.72
2022-11-12T16:48:24.812Z,70.40
2022-11-12T16:51:17.643Z,66.32
2022-11-12T16:54:05.287Z,81.82
2022-11-12T16:56:51.635Z,62.30
2022-11-12T16:59:39.079Z,65.70
2022-11-12T17:02:26.277Z,70.53
2022-11-12T17:05:17.422Z,68.88
2022-11-12T17:08:03.954Z,83.03
2022-11-12T17:10:51.106Z,78.93
2022-11-12T17:13:39.185Z,79.72
2022-11-12T17:16:25.560Z,81.85
2022-11-12T17:19:12.929Z,83.93
2022-11-12T17:21:59.160Z,88.30
2022-11-12T17:24:46.804Z,109.50
2022-11-12T17:27:33.917Z,89.95
2022-11-12T17:30:20.418Z,88.65
2022-11-12T17:33:07.079Z,81.88
2022-11-12T17:35:53.204Z,72.43
2022-11-12T17:38:40.374Z,86.95
2022-11-12T17:41:29.165Z,81.93
2022-11-12T17:44:18.303Z,83.97
2022-11-12T17:47:05.169Z,82.63
2022-11-12T17:49:51.774Z,76.22
2022-11-12T17:52:39.441Z,75.93
2022-11-12T17:55:26.501Z,70.30
2022-11-12T17:58:13.365Z,69.35
2022-11-12T18:01:10.001Z,68.93
2022-11-12T18:03:58.436Z,67.30
2022-11-12T18:06:45.241Z,74.40
2022-11-12T18:09:32.849Z,66.28
2022-11-12T18:12:19.148Z,55.45
2022-11-12T18:15:06.474Z,56.47
2022-11-12T18:17:53.397Z,52.30
2022-11-12T18:20:41.218Z,63.97
2022-11-12T18:23:27.891Z,59.28
2022-11-12T18:26:15.575Z,61.45
2022-11-12T18:29:02.867Z,63.75
2022-11-12T18:31:49.812Z,53.40
2022-11-12T18:34:36.578Z,54.17
2022-11-12T18:37:22.976Z,48.05
2022-11-12T18:40:10.033Z,46.10
2022-11-12T18:42:56.840Z,30.10
2022-11-12T18:45:43.951Z,44.90
2022-11-12T18:48:31.828Z,62.85
2022-11-12T18:51:19.316Z,62.30
2022-11-12T18:54:05.833Z,75.88
2022-11-12T18:56:52.237Z,88.65
2022-11-12T18:59:38.824Z,93.35
2022-11-12T19:02:25.315Z,88.70
2022-11-12T19:05:11.564Z,80.75
2022-11-12T19:07:58.343Z,115.60
2022-11-12T19:10:46.322Z,81.88
2022-11-12T19:13:32.962Z,69.35
2022-11-12T19:16:22.685Z,60.25
2022-11-12T19:19:10.717Z,56.28
2022-11-12T19:21:57.453Z,58.45
2022-11-12T19:24:43.775Z,64.68
2022-11-12T19:27:31.427Z,71.43
2022-11-12T19:30:18.278Z,101.00
2022-11-12T19:33:04.694Z,102.55
2022-11-12T19:35:50.943Z,120.05
2022-11-12T19:38:38.028Z,80.93
2022-11-12T19:41:25.299Z,70.43
2022-11-12T19:44:11.652Z,58.10
2022-11-12T19:46:58.362Z,67.30
2022-11-12T19:49:44.829Z,54.97
2022-11-12T19:52:31.366Z,54.10
2022-11-12T19:55:17.910Z,56.45
2022-11-12T19:58:04.491Z,55.10
2022-11-12T20:00:50.949Z,50.85
2022-11-12T20:03:39.171Z,63.97
2022-11-12T20:06:27.460Z,68.45
2022-11-12T20:09:14.107Z,67.35
2022-11-12T20:12:00.839Z,62.90
2022-11-12T20:14:48.184Z,59.63
2022-11-12T20:17:35.276Z,66.10
2022-11-12T20:20:22.416Z,76.03
2022-11-12T20:23:08.988Z,70.88
2022-11-12T20:26:01.655Z,83.22
2022-11-12T20:28:49.019Z,80.57
2022-11-12T20:31:35.737Z,79.97
2022-11-12T20:34:22.774Z,82.82
2022-11-12T20:37:11.442Z,76.88
2022-11-12T20:39:57.653Z,71.70
2022-11-12T20:42:50.785Z,99.40
2022-11-12T20:45:40.931Z,92.38
2022-11-12T20:48:29.030Z,83.25
2022-11-12T20:51:25.732Z,97.10
2022-11-12T20:54:12.333Z,93.68
2022-11-12T20:57:00.074Z,85.68
2022-11-12T20:59:50.176Z,81.45
2022-11-12T21:02:37.090Z,76.55
2022-11-12T21:05:23.827Z,75.47
2022-11-12T21:08:10.278Z,67.53
2022-11-12T21:11:00.996Z,71.20
2022-11-12T21:13:49.142Z,66.57
2022-11-12T21:16:35.768Z,65.97
2022-11-12T21:19:22.901Z,69.88
2022-11-12T21:22:09.587Z,72.45
2022-11-12T21:24:55.933Z,78.80
2022-11-12T21:27:42.695Z,81.03
2022-11-12T21:30:30.759Z,89.55
2022-11-12T21:33:17.507Z,92.78
2022-11-12T21:36:14.850Z,91.78
2022-11-12T21:39:05.570Z,89.72
2022-11-12T21:41:54.035Z,94.50
2022-11-12T21:44:40.806Z,83.20
2022-11-12T21:47:28.750Z,76.50
2022-11-12T21:50:15.461Z,70.30
2022-11-12T21:53:01.972Z,60.58
2022-11-12T21:55:50.768Z,55.00
2022-11-12T21:58:37.711Z,50.42
2022-11-12T22:01:28.136Z,48.47
2022-11-12T22:04:18.312Z,47.95
2022-11-12T22:07:06.508Z,47.60
2022-11-12T22:09:56.854Z,41.45
2022-11-12T22:13:05.032Z,43.40
2022-11-12T22:15:50.790Z,46.00
2022-11-12T22:18:37.258Z,47.05
2022-11-12T22:21:36.736Z,45.20
2022-11-12T22:24:25.110Z,38.85
2022-11-12T22:27:11.514Z,45.38
2022-11-12T22:29:57.833Z,42.83
2022-11-12T22:32:43.959Z,44.45
2022-11-12T22:35:30.940Z,41.97
2022-11-12T22:38:17.103Z,42.38
2022-11-12T22:41:05.180Z,42.20
2022-11-12T22:43:57.112Z,43.67
2022-11-12T22:46:43.038Z,37.92
2022-11-12T22:49:28.973Z,38.20
2022-11-12T22:52:15.064Z,40.72
2022-11-12T22:55:02.988Z,41.65
2022-11-12T22:57:50.110Z,44.33
2022-11-12T23:00:36.648Z,44.33
2022-11-12T23:03:24.342Z,39.90
2022-11-12T23:06:10.676Z,38.58
2022-11-12T23:08:59.674Z,38.70
2022-11-12T23:11:46.075Z,35.03
2022-11-12T23:14:32.477Z,38.63
2022-11-12T23:17:18.709Z,40.22
2022-11-12T23:20:06.731Z,39.88
2022-11-12T23:22:53.735Z,41.72
2022-11-12T23:25:40.271Z,43.90
2022-11-12T23:28:27.014Z,39.47
2022-11-12T23:31:19.541Z,43.45
2022-11-12T23:34:05.755Z,38.15
2022-11-12T23:36:52.268Z,38.72
2022-11-12T23:39:38.896Z,36.72
2022-11-12T23:42:25.239Z,37.53
2022-11-12T23:45:11.801Z,43.92
2022-11-12T23:47:58.164Z,45.47
2022-11-12T23:50:45.035Z,44.45
2022-11-12T23:53:34.606Z,43.38
2022-11-12T23:56:21.368Z,30.52
2022-11-12T23:59:07.356Z,43.03
